createdAt,value
2019-03-04T00:01:10.765Z,3.87
2019-03-04T00:06:18.504Z,3.80
2019-03-04T00:11:26.245Z,3.89
2019-03-04T00:16:33.929Z,4.28
2019-03-04T00:21:41.637Z,4.22
2019-03-04T00:26:49.333Z,4.18
2019-03-04T00:31:56.981Z,4.29
2019-03-04T00:37:04.642Z,3.95
2019-03-04T00:42:12.336Z,3.54
2019-03-04T00:47:20.037Z,3.18
2019-03-04T00:52:27.721Z,3.37
2019-03-04T00:57:35.470Z,3.34
2019-03-04T01:02:43.144Z,3.35
2019-03-04T01:07:50.899Z,3.36
2019-03-04T01:12:58.592Z,3.51
2019-03-04T01:18:06.228Z,3.00
2019-03-04T01:23:13.950Z,3.06
2019-03-04T01:28:21.628Z,2.94
2019-03-04T01:33:29.312Z,2.85
2019-03-04T01:38:36.934Z,3.09
2019-03-04T01:43:44.621Z,3.12
2019-03-04T01:48:52.319Z,3.01
2019-03-04T01:54:00.001Z,2.93
2019-03-04T01:59:07.689Z,2.65
2019-03-04T02:04:15.462Z,2.80
2019-03-04T02:09:23.164Z,2.49
2019-03-04T02:14:30.889Z,2.49
2019-03-04T02:19:38.561Z,2.37
2019-03-04T02:24:46.249Z,2.30
2019-03-04T02:29:53.960Z,2.10
2019-03-04T02:35:01.645Z,2.36
2019-03-04T02:40:09.345Z,2.09
2019-03-04T02:45:17.035Z,1.91
2019-03-04T02:50:24.733Z,2.05
2019-03-04T02:55:32.430Z,2.20
2019-03-04T03:00:40.172Z,2.04
2019-03-04T03:05:47.857Z,2.03
2019-03-04T03:10:55.597Z,2.03
2019-03-04T03:16:03.287Z,2.00
2019-03-04T03:21:11.029Z,2.19
2019-03-04T03:26:18.713Z,2.53
2019-03-04T03:31:26.587Z,2.79
2019-03-04T03:36:34.105Z,2.98
2019-03-04T03:41:41.784Z,3.06
2019-03-04T03:46:49.411Z,3.07
2019-03-04T03:51:57.158Z,2.82
2019-03-04T03:57:04.796Z,3.02
2019-03-04T04:02:12.510Z,2.72
2019-03-04T04:07:20.289Z,2.72
2019-03-04T04:12:27.968Z,2.55
2019-03-04T04:17:35.816Z,2.79
2019-03-04T04:22:43.483Z,2.74
2019-03-04T04:27:51.154Z,2.69
2019-03-04T04:32:58.817Z,2.65
2019-03-04T04:38:06.529Z,2.67
2019-03-04T04:43:14.166Z,2.44
2019-03-04T04:48:21.825Z,2.56
2019-03-04T04:53:29.452Z,2.35
2019-03-04T04:58:37.169Z,2.15
2019-03-04T05:03:44.812Z,2.19
2019-03-04T05:08:52.476Z,1.90
2019-03-04T05:14:00.226Z,2.02
2019-03-04T05:19:07.845Z,2.18
2019-03-04T05:24:15.477Z,2.00
2019-03-04T05:29:23.135Z,1.65
2019-03-04T05:34:30.772Z,1.77
2019-03-04T05:39:38.398Z,1.30
2019-03-04T05:44:46.081Z,1.11
2019-03-04T05:49:53.735Z,1.15
2019-03-04T05:55:01.381Z,1.08
2019-03-04T06:00:08.997Z,1.00
2019-03-04T06:05:16.893Z,0.98
2019-03-04T06:10:24.524Z,0.79
2019-03-04T06:15:32.260Z,0.99
2019-03-04T06:20:39.881Z,0.95
2019-03-04T06:25:47.556Z,0.95
2019-03-04T06:30:55.260Z,0.95
2019-03-04T06:36:02.945Z,1.04
2019-03-04T06:41:10.645Z,0.84
2019-03-04T06:46:18.328Z,1.27
2019-03-04T06:51:26.008Z,1.49
2019-03-04T06:56:33.692Z,1.59
2019-03-04T07:01:41.408Z,1.36
2019-03-04T07:06:49.087Z,1.29
2019-03-04T07:11:56.724Z,1.44
2019-03-04T07:17:04.429Z,1.43
2019-03-04T07:22:12.172Z,1.46
2019-03-04T07:27:20.025Z,1.61
2019-03-04T07:32:27.477Z,1.17
2019-03-04T07:37:35.124Z,1.56
2019-03-04T07:42:42.768Z,1.36
2019-03-04T07:47:50.392Z,1.31
2019-03-04T07:52:58.075Z,1.60
2019-03-04T07:58:05.712Z,1.63
2019-03-04T08:03:13.340Z,1.54
2019-03-04T08:08:20.972Z,1.74
2019-03-04T08:13:28.609Z,1.67
2019-03-04T08:18:36.254Z,1.76
2019-03-04T08:23:43.907Z,1.80
2019-03-04T08:28:51.602Z,1.86
2019-03-04T08:33:59.247Z,1.63
2019-03-04T08:39:08.751Z,2.33
2019-03-04T08:44:16.325Z,1.84
2019-03-04T08:49:24.037Z,1.86
2019-03-04T08:54:31.707Z,2.09
2019-03-04T08:59:39.393Z,1.72
2019-03-04T09:04:47.059Z,1.74
2019-03-04T09:09:54.760Z,1.99
2019-03-04T09:15:02.452Z,2.05
2019-03-04T09:20:10.078Z,2.19
2019-03-04T09:25:17.746Z,2.80
2019-03-04T09:30:25.459Z,2.05
2019-03-04T09:35:33.160Z,1.28
2019-03-04T09:40:40.833Z,1.42
2019-03-04T09:45:48.502Z,1.52
2019-03-04T09:50:56.183Z,1.60
2019-03-04T09:56:03.915Z,2.25
2019-03-04T10:01:11.561Z,2.34
2019-03-04T10:06:19.242Z,2.35
2019-03-04T10:11:26.921Z,2.76
2019-03-04T10:16:34.609Z,2.64
2019-03-04T10:21:42.290Z,2.76
2019-03-04T10:26:49.984Z,2.97
2019-03-04T10:31:57.669Z,2.57
2019-03-04T10:37:05.750Z,2.27
2019-03-04T10:42:13.421Z,2.02
2019-03-04T10:47:21.120Z,1.78
2019-03-04T10:52:28.797Z,1.91
2019-03-04T10:57:36.541Z,1.95
2019-03-04T11:02:44.214Z,2.25
2019-03-04T11:07:51.959Z,2.88
2019-03-04T11:12:59.689Z,2.99
2019-03-04T11:18:07.381Z,3.97
2019-03-04T11:23:15.199Z,4.45
2019-03-04T11:28:22.774Z,5.01
2019-03-04T11:33:30.444Z,4.44
2019-03-04T11:38:38.203Z,4.61
2019-03-04T11:43:45.870Z,4.17
2019-03-04T11:48:53.568Z,4.02
2019-03-04T11:54:01.243Z,3.81
2019-03-04T11:59:08.932Z,4.63
2019-03-04T12:04:16.611Z,4.77
2019-03-04T12:09:24.297Z,4.74
2019-03-04T12:14:32.006Z,4.23
2019-03-04T12:19:39.674Z,4.08
2019-03-04T12:24:47.354Z,3.96
2019-03-04T12:29:55.035Z,2.98
2019-03-04T12:35:02.731Z,3.34
2019-03-04T12:40:10.400Z,3.24
2019-03-04T12:45:18.112Z,2.93
2019-03-04T12:50:25.792Z,3.03
2019-03-04T12:55:33.490Z,2.51
2019-03-04T13:00:41.146Z,2.04
2019-03-04T13:05:48.836Z,2.71
2019-03-04T13:10:56.520Z,2.65
2019-03-04T13:16:04.225Z,2.80
2019-03-04T13:21:11.848Z,2.80
2019-03-04T13:26:19.576Z,2.58
2019-03-04T13:31:27.248Z,2.03
2019-03-04T13:36:34.944Z,1.90
2019-03-04T13:41:42.626Z,1.70
2019-03-04T13:46:50.319Z,1.43
2019-03-04T13:51:57.996Z,1.93
2019-03-04T13:57:05.688Z,1.39
2019-03-04T14:02:13.661Z,1.69
2019-03-04T14:07:21.352Z,1.82
2019-03-04T14:12:29.046Z,1.92
2019-03-04T14:17:36.672Z,1.51
2019-03-04T14:22:54.202Z,1.36
2019-03-04T14:27:51.557Z,1.70
2019-03-04T14:32:59.365Z,1.31
2019-03-04T14:38:07.057Z,1.53
2019-03-04T14:43:14.730Z,1.32
2019-03-04T14:48:22.348Z,1.68
2019-03-04T14:53:30.136Z,1.40
2019-03-04T14:58:37.785Z,1.96
2019-03-04T15:03:45.424Z,2.52
2019-03-04T15:08:53.061Z,1.62
2019-03-04T15:14:00.691Z,2.12
2019-03-04T15:19:08.346Z,2.57
2019-03-04T15:24:16.140Z,2.37
2019-03-04T15:29:23.777Z,3.12
2019-03-04T15:34:31.490Z,2.68
2019-03-04T15:39:39.107Z,2.52
2019-03-04T15:44:46.782Z,2.31
2019-03-04T15:49:54.437Z,2.42
2019-03-04T15:55:02.132Z,2.53
2019-03-04T16:00:09.736Z,3.00
2019-03-04T16:05:17.422Z,2.47
2019-03-04T16:10:25.108Z,2.32
2019-03-04T16:15:32.766Z,2.29
2019-03-04T16:20:40.517Z,2.15
2019-03-04T16:25:48.184Z,2.33
2019-03-04T16:30:55.871Z,2.13
2019-03-04T16:36:03.552Z,2.13
2019-03-04T16:41:11.222Z,1.74
2019-03-04T16:46:18.892Z,1.83
2019-03-04T16:51:26.548Z,2.28
2019-03-04T16:56:34.237Z,1.85
2019-03-04T17:01:41.984Z,1.87
2019-03-04T17:06:49.660Z,2.04
2019-03-04T17:11:57.405Z,1.89
2019-03-04T17:17:05.100Z,1.78
2019-03-04T17:22:12.943Z,1.81
2019-03-04T17:27:20.591Z,1.93
2019-03-04T17:32:28.292Z,1.67
2019-03-04T17:37:36.033Z,1.79
2019-03-04T17:42:43.711Z,1.94
2019-03-04T17:47:51.348Z,1.89
2019-03-04T17:52:59.005Z,1.93
2019-03-04T17:58:06.768Z,2.52
2019-03-04T18:03:14.460Z,2.44
2019-03-04T18:08:22.088Z,2.22
2019-03-04T18:13:29.821Z,2.59
2019-03-04T18:18:37.475Z,2.59
2019-03-04T18:23:45.191Z,2.80
2019-03-04T18:28:57.564Z,4.03
2019-03-04T18:34:00.117Z,2.67
2019-03-04T18:39:07.789Z,2.94
2019-03-04T18:44:15.492Z,3.85
2019-03-04T18:49:23.185Z,3.20
2019-03-04T18:54:30.952Z,3.12
2019-03-04T18:59:38.645Z,2.66
2019-03-04T19:04:46.309Z,3.32
2019-03-04T19:09:54.013Z,3.08
2019-03-04T19:15:01.703Z,2.66
2019-03-04T19:20:09.405Z,2.89
2019-03-04T19:25:17.111Z,3.21
2019-03-04T19:30:24.845Z,3.11
2019-03-04T19:35:32.586Z,2.95
2019-03-04T19:40:40.299Z,2.25
2019-03-04T19:45:47.937Z,1.45
2019-03-04T19:50:55.618Z,1.35
2019-03-04T19:56:03.265Z,1.87
2019-03-04T20:01:10.969Z,1.91
2019-03-04T20:06:18.653Z,1.93
2019-03-04T20:11:26.371Z,2.04
2019-03-04T20:16:34.050Z,2.63
2019-03-04T20:21:41.747Z,2.56
2019-03-04T20:26:49.377Z,2.27
2019-03-04T20:31:57.073Z,2.60
2019-03-04T20:37:04.742Z,2.59
2019-03-04T20:42:12.426Z,3.11
2019-03-04T20:47:20.148Z,2.93
2019-03-04T20:52:27.844Z,3.17
2019-03-04T20:57:35.512Z,3.57
2019-03-04T21:02:43.190Z,3.75
2019-03-04T21:07:50.829Z,4.23
2019-03-04T21:12:58.446Z,3.62
2019-03-04T21:18:06.250Z,4.31
2019-03-04T21:23:13.721Z,3.49
2019-03-04T21:28:21.388Z,3.71
2019-03-04T21:33:29.095Z,3.60
2019-03-04T21:38:36.792Z,3.75
2019-03-04T21:43:44.434Z,3.03
2019-03-04T21:48:52.108Z,3.20
2019-03-04T21:53:59.769Z,3.03
2019-03-04T21:59:07.470Z,3.11
2019-03-04T22:04:15.141Z,3.23
2019-03-04T22:09:22.873Z,2.80
2019-03-04T22:14:30.525Z,2.76
2019-03-04T22:19:38.205Z,3.79
2019-03-04T22:24:45.805Z,2.96
2019-03-04T22:29:53.447Z,2.87
2019-03-04T22:35:01.064Z,2.99
2019-03-04T22:40:08.699Z,3.20
2019-03-04T22:45:16.346Z,3.77
2019-03-04T22:50:24.077Z,3.66
2019-03-04T22:55:31.724Z,2.75
2019-03-04T23:00:39.432Z,3.77
2019-03-04T23:05:47.056Z,3.32
2019-03-04T23:10:54.702Z,3.63
2019-03-04T23:16:02.756Z,3.56
2019-03-04T23:21:10.372Z,3.07
2019-03-04T23:26:18.028Z,3.19
2019-03-04T23:31:25.669Z,3.93
2019-03-04T23:36:33.315Z,2.88
2019-03-04T23:41:40.929Z,2.87
2019-03-04T23:46:48.570Z,3.12
2019-03-04T23:51:56.301Z,3.76
2019-03-04T23:57:03.962Z,3.98
